Time;durP1;ratioP1;P1;durP2;ratioP2;P2;SDS_P1;SDS_P2;PMS_P1;PMS_P2;Temp;Humidity;BMP_temperature;BMP_pressure;BME280_temperature;BME280_humidity;BME280_pressure;Samples;Min_cycle;Max_cycle;Signal;HPM_P1;HPM_P2
2022/05/22 00:00:40;;;;;;;7.57;4.18;;;13.20;99.90;;;;;;5053776;28;20326;-71
2022/05/22 00:03:30;;;;;;;5.63;3.72;;;13.20;99.90;;;;;;5055543;28;20359;-70
2022/05/22 00:06:18;;;;;;;4.80;4.18;;;13.20;99.90;;;;;;5057339;28;20419;-70
2022/05/22 00:09:07;;;;;;;6.88;4.40;;;13.10;99.90;;;;;;5065561;28;20228;-71
2022/05/22 00:12:01;;;;;;;5.93;4.30;;;13.00;99.90;;;;;;5056367;28;20656;-69
2022/05/22 00:14:50;;;;;;;5.40;4.18;;;13.10;99.90;;;;;;5070216;28;20299;-70
2022/05/22 00:17:39;;;;;;;4.90;4.18;;;13.20;99.90;;;;;;5071396;28;20236;-70
2022/05/22 00:20:27;;;;;;;5.82;4.40;;;13.10;99.90;;;;;;5048249;28;20216;-70
2022/05/22 00:23:16;;;;;;;4.90;3.90;;;13.20;99.90;;;;;;5054630;28;20228;-69
2022/05/22 00:26:05;;;;;;;6.20;4.20;;;13.10;99.90;;;;;;5056685;28;20797;-71
2022/05/22 00:28:58;;;;;;;5.05;4.30;;;13.00;99.90;;;;;;5054783;28;20410;-70
2022/05/22 00:31:47;;;;;;;5.60;4.20;;;13.10;99.90;;;;;;5055709;28;20594;-70
2022/05/22 00:34:37;;;;;;;6.15;3.95;;;13.20;99.90;;;;;;5054983;28;20371;-70
2022/05/22 00:37:26;;;;;;;5.20;4.38;;;13.10;99.90;;;;;;5062518;28;20228;-71
2022/05/22 00:40:15;;;;;;;6.00;3.85;;;13.20;99.90;;;;;;5053402;28;20219;-70
2022/05/22 00:43:04;;;;;;;5.45;3.80;;;13.10;99.90;;;;;;5036078;28;20699;-70
2022/05/22 00:45:54;;;;;;;4.18;3.65;;;13.10;99.90;;;;;;5055404;28;20228;-70
2022/05/22 00:48:47;;;;;;;6.03;3.95;;;13.10;99.90;;;;;;5055689;28;20726;-70
2022/05/22 00:51:40;;;;;;;5.80;3.63;;;13.10;99.90;;;;;;5052405;28;20745;-68
2022/05/22 00:54:36;;;;;;;4.10;3.70;;;13.10;99.90;;;;;;5067891;28;20243;-70
2022/05/22 00:57:33;;;;;;;6.93;3.30;;;13.20;99.90;;;;;;5052573;28;20227;-70
2022/05/22 01:00:25;;;;;;;4.10;3.47;;;13.20;99.90;;;;;;5051019;28;20287;-69
2022/05/22 01:03:28;;;;;;;6.15;3.65;;;13.20;99.90;;;;;;5060125;28;20312;-70
2022/05/22 01:06:24;;;;;;;4.50;3.33;;;13.10;99.90;;;;;;5059242;28;20219;-70
2022/05/22 01:09:13;;;;;;;5.22;3.60;;;13.10;99.90;;;;;;5051532;28;20223;-70
2022/05/22 01:12:06;;;;;;;4.47;2.83;;;13.10;99.90;;;;;;5052702;28;20532;-69
2022/05/22 01:14:59;;;;;;;3.50;3.20;;;13.20;99.90;;;;;;5038366;28;20225;-70
2022/05/22 01:17:49;;;;;;;5.47;3.10;;;13.20;99.90;;;;;;5055966;28;20300;-70
2022/05/22 01:20:46;;;;;;;5.57;2.92;;;13.20;99.90;;;;;;5055275;28;20228;-70
2022/05/22 01:23:36;;;;;;;3.70;3.03;;;13.20;99.90;;;;;;5051351;28;20299;-69
2022/05/22 01:26:33;;;;;;;3.78;2.58;;;13.10;99.90;;;;;;5044132;28;20220;-69
2022/05/22 01:29:43;;;;;;;4.60;2.78;;;13.00;99.90;;;;;;5041686;28;20357;-69
2022/05/22 01:32:33;;;;;;;3.88;2.63;;;13.10;99.90;;;;;;5049107;28;20595;-70
2022/05/22 01:35:27;;;;;;;4.60;2.88;;;13.10;99.90;;;;;;5053421;28;20927;-72
2022/05/22 01:38:19;;;;;;;3.72;2.65;;;13.00;99.90;;;;;;5035511;28;20232;-71
2022/05/22 01:41:10;;;;;;;4.38;3.00;;;13.00;99.90;;;;;;5053954;28;20691;-70
2022/05/22 01:44:01;;;;;;;5.60;3.55;;;13.10;99.90;;;;;;5053752;28;20853;-70
2022/05/22 01:46:50;;;;;;;5.50;2.90;;;13.10;99.90;;;;;;5051534;28;20736;-70
2022/05/22 01:49:43;;;;;;;3.30;2.72;;;13.00;99.90;;;;;;5038366;28;20243;-70
2022/05/22 01:52:32;;;;;;;4.88;2.70;;;12.90;99.90;;;;;;5047621;28;20346;-71
2022/05/22 01:55:21;;;;;;;3.78;3.00;;;13.00;99.90;;;;;;5038361;28;20247;-70
2022/05/22 01:58:13;;;;;;;4.55;2.63;;;12.90;99.90;;;;;;5045077;28;20328;-71
2022/05/22 02:01:04;;;;;;;3.72;2.53;;;12.90;99.90;;;;;;5020381;28;20221;-70
2022/05/22 02:03:54;;;;;;;4.05;2.60;;;12.90;99.90;;;;;;5017719;28;20229;-69
2022/05/22 02:09:57;;;;;;;3.67;2.47;;;12.90;99.90;;;;;;5020788;28;20236;-68
2022/05/22 02:12:47;;;;;;;4.00;2.40;;;13.00;99.90;;;;;;5044688;28;21006;-69
2022/05/22 02:15:38;;;;;;;3.67;2.63;;;12.90;99.90;;;;;;5044006;28;20216;-68
2022/05/22 02:18:27;;;;;;;5.28;2.10;;;13.00;99.90;;;;;;5018201;28;20292;-69
2022/05/22 02:21:16;;;;;;;3.42;2.10;;;13.00;99.90;;;;;;5018955;28;20699;-69
2022/05/22 02:24:05;;;;;;;2.80;2.00;;;12.90;99.90;;;;;;5043057;28;20362;-69
2022/05/22 02:26:54;;;;;;;3.15;2.10;;;12.90;99.90;;;;;;5022341;28;20228;-69
2022/05/22 02:29:43;;;;;;;3.13;2.10;;;12.80;99.90;;;;;;5031186;28;20252;-70
2022/05/22 02:32:36;;;;;;;4.72;2.05;;;12.80;99.90;;;;;;5046522;28;20358;-69
2022/05/22 02:35:26;;;;;;;4.18;2.17;;;12.80;99.90;;;;;;5018496;28;20310;-70
2022/05/22 02:38:25;;;;;;;3.40;2.00;;;12.80;99.90;;;;;;5030418;28;20341;-69
2022/05/22 02:41:16;;;;;;;3.28;2.10;;;12.90;99.90;;;;;;5041956;28;20311;-70
2022/05/22 02:44:16;;;;;;;3.38;2.05;;;12.80;99.90;;;;;;5042279;28;20912;-69
2022/05/22 02:47:05;;;;;;;4.57;2.40;;;12.70;99.90;;;;;;5022420;28;21091;-69
2022/05/22 02:49:55;;;;;;;4.57;2.40;;;12.80;99.90;;;;;;5050886;28;20210;-70
2022/05/22 02:52:45;;;;;;;3.90;2.50;;;12.80;99.90;;;;;;5029142;28;20244;-71
2022/05/22 02:55:34;;;;;;;3.42;2.30;;;12.90;99.90;;;;;;5046113;28;20224;-71
2022/05/22 02:58:23;;;;;;;3.47;2.45;;;12.80;99.90;;;;;;5027198;28;20260;-70
2022/05/22 03:01:13;;;;;;;3.28;2.53;;;12.70;99.90;;;;;;5053355;28;20816;-70
2022/05/22 03:04:02;;;;;;;3.75;2.97;;;12.70;99.90;;;;;;5056347;28;20319;-69
2022/05/22 03:06:52;;;;;;;4.60;2.70;;;12.80;99.90;;;;;;5053325;28;20220;-69
2022/05/22 03:09:42;;;;;;;2.60;2.40;;;12.80;99.90;;;;;;5071169;28;20216;-69
2022/05/22 03:12:31;;;;;;;3.92;2.88;;;12.80;99.90;;;;;;5070536;28;20224;-69
2022/05/22 03:15:22;;;;;;;3.25;2.45;;;12.90;99.90;;;;;;5067312;28;20315;-68
2022/05/22 03:18:10;;;;;;;4.72;2.50;;;12.80;99.90;;;;;;5053215;28;20224;-70
2022/05/22 03:20:59;;;;;;;2.60;2.40;;;12.90;99.90;;;;;;5069867;28;20282;-70
2022/05/22 03:23:53;;;;;;;4.18;2.65;;;12.90;99.90;;;;;;5059931;28;20224;-69
2022/05/22 03:26:42;;;;;;;5.70;2.42;;;13.00;99.90;;;;;;5054553;28;20224;-69
2022/05/22 03:29:32;;;;;;;2.30;2.10;;;12.90;99.90;;;;;;5067159;28;20267;-69
2022/05/22 03:32:21;;;;;;;3.33;2.45;;;12.80;99.90;;;;;;5064034;28;20220;-69
2022/05/22 03:35:16;;;;;;;2.65;2.20;;;12.80;99.90;;;;;;5066234;28;20251;-69
2022/05/22 03:38:05;;;;;;;4.10;2.28;;;12.70;99.90;;;;;;5067602;28;20393;-69
2022/05/22 03:40:59;;;;;;;3.35;2.60;;;12.80;99.90;;;;;;5065923;28;20212;-71
2022/05/22 03:43:54;;;;;;;2.70;2.50;;;12.80;99.90;;;;;;5050641;28;20224;-69
2022/05/22 03:46:56;;;;;;;4.85;2.65;;;12.80;99.90;;;;;;5068301;28;20250;-69
2022/05/22 03:49:53;;;;;;;3.08;2.63;;;12.90;99.90;;;;;;5059709;28;20295;-69
2022/05/22 03:52:47;;;;;;;3.47;2.80;;;13.00;99.90;;;;;;5057588;28;20228;-70
2022/05/22 03:55:59;;;;;;;3.20;2.90;;;13.00;99.90;;;;;;5053878;28;20224;-70
2022/05/22 03:58:51;;;;;;;3.63;3.10;;;12.90;99.90;;;;;;5053503;28;20229;-70
2022/05/22 04:01:40;;;;;;;3.10;2.63;;;12.90;99.90;;;;;;5062709;28;20223;-69
2022/05/22 04:04:33;;;;;;;3.25;2.75;;;13.00;99.90;;;;;;5061273;28;20714;-69
2022/05/22 04:07:37;;;;;;;3.20;2.90;;;12.90;99.90;;;;;;5056319;28;20947;-70
2022/05/22 04:10:26;;;;;;;3.13;2.83;;;12.90;99.90;;;;;;5069514;28;20308;-70
2022/05/22 04:13:20;;;;;;;2.72;2.53;;;12.80;99.90;;;;;;5065652;28;20670;-69
2022/05/22 04:16:14;;;;;;;5.47;3.03;;;12.80;99.90;;;;;;5048646;28;20220;-70
2022/05/22 04:19:04;;;;;;;3.30;3.00;;;12.90;99.90;;;;;;5057538;28;20509;-70
2022/05/22 04:21:53;;;;;;;3.13;2.78;;;12.90;99.90;;;;;;5064676;28;20219;-70
2022/05/22 04:27:58;;;;;;;3.00;2.55;;;13.00;99.90;;;;;;5068920;28;20247;-70
2022/05/22 04:30:49;;;;;;;4.50;2.90;;;13.00;99.90;;;;;;5073639;28;20223;-69
2022/05/22 04:33:38;;;;;;;2.80;2.25;;;13.00;99.90;;;;;;5058184;28;20579;-70
2022/05/22 04:36:26;;;;;;;3.92;2.13;;;13.00;99.90;;;;;;5059880;28;20227;-70
2022/05/22 04:39:15;;;;;;;3.97;2.25;;;13.00;99.90;;;;;;5069641;28;20227;-70
2022/05/22 04:42:17;;;;;;;3.50;2.28;;;13.10;99.90;;;;;;5050185;28;20999;-71
2022/05/22 04:45:07;;;;;;;3.10;2.40;;;13.00;99.90;;;;;;5056457;28;20224;-70
2022/05/22 04:48:07;;;;;;;3.83;2.30;;;12.90;99.90;;;;;;5056166;28;20458;-71
2022/05/22 04:51:04;;;;;;;2.50;2.20;;;13.00;99.90;;;;;;5065943;28;20221;-71
2022/05/22 04:53:53;;;;;;;4.65;2.65;;;13.00;99.90;;;;;;5060113;28;20224;-71
2022/05/22 04:56:45;;;;;;;4.18;2.80;;;13.00;99.90;;;;;;5053253;28;20221;-71
2022/05/22 04:59:44;;;;;;;4.20;2.60;;;13.00;99.90;;;;;;5073114;28;20224;-72
2022/05/22 05:02:33;;;;;;;3.55;2.78;;;13.00;99.90;;;;;;5060364;28;20236;-70
2022/05/22 05:05:24;;;;;;;5.03;3.47;;;13.00;99.90;;;;;;5059553;28;20333;-71
2022/05/22 05:08:13;;;;;;;4.82;2.67;;;13.10;99.90;;;;;;5069216;28;20540;-71
2022/05/22 05:11:14;;;;;;;3.30;2.40;;;13.00;99.90;;;;;;5070069;28;20590;-71
2022/05/22 05:14:08;;;;;;;3.10;2.70;;;13.00;99.90;;;;;;5070487;28;20227;-69
2022/05/22 05:16:59;;;;;;;4.43;2.75;;;13.20;99.90;;;;;;5049998;28;20227;-69
2022/05/22 05:19:48;;;;;;;5.85;2.90;;;13.20;99.90;;;;;;5052849;28;20668;-69
2022/05/22 05:22:43;;;;;;;3.00;2.70;;;13.20;99.90;;;;;;5061379;28;20280;-69
2022/05/22 05:25:39;;;;;;;3.53;2.70;;;13.10;99.90;;;;;;5063585;28;20219;-69
2022/05/22 05:28:29;;;;;;;2.88;2.50;;;13.20;99.90;;;;;;5050737;28;20220;-69
2022/05/22 05:31:18;;;;;;;3.47;2.63;;;13.10;99.90;;;;;;5054511;28;20771;-69
2022/05/22 05:34:10;;;;;;;4.20;2.90;;;13.20;99.90;;;;;;5066952;28;20289;-71
2022/05/22 05:37:19;;;;;;;3.20;2.55;;;13.30;99.90;;;;;;5057253;28;20285;-71
2022/05/22 05:40:20;;;;;;;6.00;2.88;;;13.30;99.90;;;;;;5063267;28;20623;-70
2022/05/22 05:43:10;;;;;;;3.50;2.60;;;13.30;99.90;;;;;;5068099;28;20223;-72
2022/05/22 05:45:59;;;;;;;4.18;2.65;;;13.30;99.90;;;;;;5059114;28;20784;-70
2022/05/22 05:48:58;;;;;;;3.67;2.58;;;13.50;99.90;;;;;;5056128;28;20642;-69
2022/05/22 05:51:47;;;;;;;2.90;2.47;;;13.80;99.90;;;;;;5051458;28;20220;-71
2022/05/22 05:54:40;;;;;;;4.78;2.58;;;13.90;99.90;;;;;;5054310;28;20224;-71
2022/05/22 05:57:50;;;;;;;3.22;2.67;;;14.00;99.90;;;;;;5059921;28;20251;-69
2022/05/22 06:00:39;;;;;;;4.32;2.25;;;14.20;99.90;;;;;;5066254;28;20239;-70
2022/05/22 06:03:28;;;;;;;3.65;2.33;;;14.50;99.90;;;;;;5064956;28;20219;-70
2022/05/22 06:06:18;;;;;;;3.45;2.47;;;14.70;99.90;;;;;;5063498;28;20834;-71
2022/05/22 06:09:07;;;;;;;3.83;2.10;;;14.90;99.90;;;;;;5066531;28;20733;-71
2022/05/22 06:11:59;;;;;;;4.70;2.20;;;14.80;99.90;;;;;;5056522;28;20232;-71
2022/05/22 06:15:12;;;;;;;3.83;1.90;;;14.60;99.90;;;;;;5061026;28;20219;-70
2022/05/22 06:18:01;;;;;;;2.63;1.85;;;14.90;99.90;;;;;;5051148;28;20216;-69
2022/05/22 06:20:50;;;;;;;5.60;2.17;;;14.90;99.90;;;;;;5064080;28;20927;-69
2022/05/22 06:23:44;;;;;;;3.25;1.92;;;15.10;99.90;;;;;;5052423;28;20251;-69
2022/05/22 06:26:53;;;;;;;6.68;2.20;;;14.80;99.90;;;;;;5054615;28;20240;-69
2022/05/22 06:30:03;;;;;;;2.03;1.83;;;14.50;99.90;;;;;;5058481;28;20216;-69
2022/05/22 06:33:17;;;;;;;3.38;1.90;;;14.30;99.90;;;;;;5050208;28;20851;-75
2022/05/22 06:36:23;;;;;;;2.05;1.80;;;14.40;99.90;;;;;;5064696;28;20231;-70
2022/05/22 06:39:52;;;;;;;3.33;1.75;;;14.80;99.90;;;;;;5053807;28;20674;-69
2022/05/22 06:43:14;;;;;;;3.25;2.10;;;15.30;99.90;;;;;;5055063;28;20327;-70
2022/05/22 06:46:13;;;;;;;4.50;2.40;;;14.90;99.90;;;;;;5055488;28;20559;-69
2022/05/22 06:49:21;;;;;;;2.00;1.80;;;14.80;99.90;;;;;;5058968;28;20698;-71
2022/05/22 06:52:30;;;;;;;2.72;2.00;;;14.70;99.90;;;;;;5074705;28;20526;-71
2022/05/22 06:55:31;;;;;;;3.25;2.03;;;14.80;99.90;;;;;;5073126;28;20218;-70
2022/05/22 06:58:52;;;;;;;5.40;2.30;;;14.90;99.90;;;;;;5061280;28;21026;-71
2022/05/22 07:02:08;;;;;;;2.63;2.08;;;15.00;99.90;;;;;;5061489;28;20239;-70
2022/05/22 07:05:13;;;;;;;6.60;2.50;;;14.90;99.90;;;;;;5066141;28;20220;-71
2022/05/22 07:08:28;;;;;;;4.05;1.80;;;14.90;99.90;;;;;;5037881;28;20227;-71
2022/05/22 07:11:43;;;;;;;2.50;1.95;;;15.00;99.90;;;;;;5065530;28;20223;-69
2022/05/22 07:14:43;;;;;;;4.07;1.95;;;15.30;99.90;;;;;;5064365;28;20255;-70
2022/05/22 07:17:32;;;;;;;2.42;1.65;;;15.40;99.90;;;;;;5063357;28;20254;-70
2022/05/22 07:20:41;;;;;;;2.20;1.70;;;16.00;99.90;;;;;;5063842;28;20291;-70
2022/05/22 07:23:39;;;;;;;2.58;1.77;;;16.20;99.90;;;;;;5050385;28;20690;-70
2022/05/22 07:26:46;;;;;;;2.83;1.73;;;16.00;99.90;;;;;;5068962;28;20224;-71
2022/05/22 07:29:54;;;;;;;3.15;1.70;;;15.90;99.90;;;;;;5058254;28;20220;-71
2022/05/22 07:32:57;;;;;;;3.90;2.50;;;15.90;99.90;;;;;;5059196;28;20314;-70
2022/05/22 07:36:04;;;;;;;5.18;1.80;;;15.50;99.90;;;;;;5042982;28;20223;-71
2022/05/22 07:39:22;;;;;;;2.45;1.83;;;15.10;99.90;;;;;;5061145;28;20640;-70
2022/05/22 07:42:27;;;;;;;2.83;1.90;;;15.10;99.90;;;;;;5046541;28;20227;-72
2022/05/22 07:45:39;;;;;;;2.17;1.80;;;15.70;99.90;;;;;;5064488;28;20228;-71
2022/05/22 07:48:54;;;;;;;2.83;1.83;;;18.70;99.90;;;;;;5045574;28;20311;-70
2022/05/22 07:52:10;;;;;;;2.55;1.70;;;17.70;99.90;;;;;;5047715;28;20212;-72
2022/05/22 07:55:32;;;;;;;2.22;1.80;;;18.60;99.90;;;;;;5059480;28;20239;-69
2022/05/22 07:58:35;;;;;;;3.63;1.85;;;17.30;99.90;;;;;;5059656;28;20280;-70
2022/05/22 08:01:45;;;;;;;3.58;1.63;;;16.80;99.90;;;;;;5059934;28;20224;-72
2022/05/22 08:04:44;;;;;;;2.97;1.73;;;16.60;99.90;;;;;;5063171;28;20736;-72
2022/05/22 08:07:40;;;;;;;2.28;1.60;;;16.70;99.90;;;;;;5058222;28;20297;-72
2022/05/22 08:10:44;;;;;;;3.78;1.60;;;17.50;99.90;;;;;;5071895;28;20246;-72
2022/05/22 08:13:40;;;;;;;1.58;1.42;;;17.40;99.90;;;;;;5057663;28;20224;-69
2022/05/22 08:16:29;;;;;;;5.60;3.08;;;20.10;99.90;;;;;;5061190;28;20239;-70
2022/05/22 08:19:38;;;;;;;6.10;4.70;;;18.80;99.90;;;;;;5060948;28;20224;-70
2022/05/22 08:22:55;;;;;;;5.07;1.80;;;19.60;99.90;;;;;;5062340;28;20231;-71
2022/05/22 08:26:04;;;;;;;1.80;1.40;;;22.30;96.60;;;;;;5061158;28;20222;-76
2022/05/22 08:28:55;;;;;;;1.45;1.33;;;19.30;99.90;;;;;;5061935;28;20258;-72
2022/05/22 08:31:44;;;;;;;4.05;1.70;;;17.70;99.90;;;;;;5070047;28;20512;-76
2022/05/22 08:34:33;;;;;;;1.95;1.30;;;17.30;99.90;;;;;;5059299;28;20705;-69
2022/05/22 08:37:22;;;;;;;1.80;1.17;;;17.40;99.90;;;;;;5062453;28;20222;-70
2022/05/22 08:40:15;;;;;;;1.90;1.30;;;18.60;99.90;;;;;;5053810;28;21136;-70
2022/05/22 08:43:07;;;;;;;6.68;1.77;;;18.40;99.90;;;;;;5058968;28;20274;-72
2022/05/22 08:46:03;;;;;;;5.60;1.90;;;17.70;99.90;;;;;;5071151;28;20299;-76
2022/05/22 08:48:56;;;;;;;2.22;1.52;;;20.60;99.90;;;;;;5049932;28;20227;-71
2022/05/22 12:39:14;;;;;;;1.58;1.48;;;17.80;89.20;;;;;;5014066;28;20533;-71
2022/05/22 12:42:12;;;;;;;1.83;1.50;;;17.80;89.60;;;;;;5030103;28;20229;-70
2022/05/22 12:45:03;;;;;;;4.07;1.40;;;17.90;90.00;;;;;;5030566;28;20229;-75
2022/05/22 12:47:54;;;;;;;2.08;1.58;;;18.00;89.00;;;;;;5035145;28;20221;-72
2022/05/22 12:50:48;;;;;;;2.42;1.48;;;18.10;89.80;;;;;;5046762;28;20848;-72
2022/05/22 12:53:42;;;;;;;2.53;1.60;;;17.60;90.40;;;;;;5029416;28;20227;-70
2022/05/22 12:56:42;;;;;;;4.38;3.25;;;17.80;90.50;;;;;;5032378;28;20222;-71
2022/05/22 12:59:31;;;;;;;2.70;1.58;;;17.90;90.10;;;;;;5034277;28;20233;-72
2022/05/22 13:02:37;;;;;;;1.90;1.58;;;17.40;90.60;;;;;;5032923;28;20527;-72
2022/05/22 13:05:33;;;;;;;3.15;1.80;;;17.40;91.90;;;;;;5033298;28;20244;-72
2022/05/22 13:08:46;;;;;;;4.15;1.85;;;17.50;91.60;;;;;;5032153;28;20223;-73
2022/05/22 13:11:45;;;;;;;2.00;1.52;;;17.50;92.00;;;;;;5035494;28;20248;-72
2022/05/22 13:14:55;;;;;;;3.08;1.80;;;17.50;92.30;;;;;;5031057;28;20222;-72
2022/05/22 13:17:51;;;;;;;4.32;1.80;;;17.50;92.20;;;;;;5033639;28;22330;-71
2022/05/22 13:20:53;;;;;;;2.58;1.90;;;17.30;92.50;;;;;;5035822;28;20596;-71
2022/05/22 13:23:45;;;;;;;4.80;2.20;;;17.50;93.20;;;;;;5032096;28;20224;-73
2022/05/22 13:26:34;;;;;;;3.75;2.00;;;17.70;92.80;;;;;;5034871;28;20233;-73
2022/05/22 13:29:27;;;;;;;2.40;1.83;;;17.50;93.70;;;;;;5033255;28;21600;-70
2022/05/22 13:32:21;;;;;;;3.88;1.90;;;17.00;94.80;;;;;;5033325;28;20759;-71
2022/05/22 13:35:22;;;;;;;3.60;1.95;;;17.50;94.30;;;;;;5029810;28;21047;-68
2022/05/22 13:38:22;;;;;;;2.70;1.92;;;17.70;93.10;;;;;;5031179;28;20737;-71
2022/05/22 13:41:40;;;;;;;3.83;1.90;;;17.90;92.40;;;;;;5028898;28;20596;-71
2022/05/22 13:45:17;;;;;;;5.05;1.95;;;17.70;92.80;;;;;;5025898;28;20233;-72
2022/05/22 13:48:41;;;;;;;4.57;2.13;;;17.40;92.80;;;;;;5029269;28;20217;-72
2022/05/22 13:54:59;;;;;;;4.85;2.22;;;16.80;94.60;;;;;;5022224;28;20232;-71
2022/05/22 13:57:55;;;;;;;4.47;1.90;;;16.60;95.90;;;;;;5016923;28;20298;-71
2022/05/22 14:00:50;;;;;;;2.72;1.80;;;16.50;97.90;;;;;;5016468;28;20221;-72
2022/05/22 14:03:47;;;;;;;2.75;1.90;;;16.20;99.80;;;;;;5018123;28;20470;-72
2022/05/22 14:06:38;;;;;;;2.58;2.00;;;16.20;99.90;;;;;;5015614;28;20221;-72
2022/05/22 14:09:34;;;;;;;6.18;2.25;;;16.10;99.90;;;;;;5014902;28;20724;-70
2022/05/22 14:12:33;;;;;;;3.10;2.25;;;16.30;99.90;;;;;;5015522;28;20225;-73
2022/05/22 14:15:26;;;;;;;4.60;2.03;;;16.10;99.90;;;;;;5016927;28;20214;-70
2022/05/22 14:18:19;;;;;;;5.13;2.20;;;16.00;99.90;;;;;;5020966;28;20226;-71
2022/05/22 14:21:10;;;;;;;4.82;2.30;;;16.00;99.90;;;;;;5021900;28;20270;-68
2022/05/22 14:27:17;;;;;;;5.30;2.22;;;16.30;99.90;;;;;;5018045;28;20302;-70
2022/05/22 14:30:08;;;;;;;5.63;2.30;;;16.20;99.90;;;;;;5019134;28;20225;-71
2022/05/22 14:33:05;;;;;;;2.78;2.30;;;16.10;99.90;;;;;;5024423;28;20236;-69
2022/05/22 14:36:09;;;;;;;4.40;2.25;;;16.00;99.90;;;;;;5020882;28;20237;-70
2022/05/22 14:38:57;;;;;;;3.88;2.63;;;15.90;99.90;;;;;;5020491;28;20221;-69
2022/05/22 14:41:49;;;;;;;5.32;2.30;;;16.10;99.90;;;;;;5024194;28;20256;-70
2022/05/22 14:44:42;;;;;;;4.50;3.13;;;16.10;99.90;;;;;;5020321;28;20404;-70
2022/05/22 14:47:31;;;;;;;4.20;2.58;;;16.10;99.90;;;;;;4996895;28;20333;-69
2022/05/22 14:50:21;;;;;;;4.32;2.35;;;16.10;99.90;;;;;;5025078;28;20280;-71
2022/05/22 14:53:16;;;;;;;4.57;2.10;;;15.90;99.90;;;;;;5017933;28;20252;-71
2022/05/22 14:56:09;;;;;;;6.30;2.40;;;16.10;99.90;;;;;;5020586;28;20233;-71
2022/05/22 14:59:02;;;;;;;2.47;2.08;;;16.10;99.90;;;;;;5017471;28;20229;-72
2022/05/22 15:01:53;;;;;;;4.18;2.38;;;16.10;99.90;;;;;;5013776;28;20236;-71
2022/05/22 15:04:45;;;;;;;4.45;2.50;;;16.10;99.90;;;;;;5017293;28;20226;-70
2022/05/22 15:07:34;;;;;;;4.05;2.40;;;15.90;99.90;;;;;;5018213;28;20264;-71
2022/05/22 15:10:30;;;;;;;6.97;2.70;;;16.10;99.90;;;;;;5017753;28;20297;-72
2022/05/22 15:13:39;;;;;;;7.13;2.53;;;16.30;99.90;;;;;;5017194;28;20226;-71
2022/05/22 15:16:35;;;;;;;3.50;2.47;;;16.20;99.90;;;;;;5017349;28;20226;-70
2022/05/22 15:25:49;;;;;;;6.22;2.50;;;16.10;99.90;;;;;;5014627;28;20298;-71
2022/05/22 15:28:37;;;;;;;3.05;2.40;;;16.00;99.90;;;;;;5017741;28;20228;-70
2022/05/22 15:31:29;;;;;;;6.60;2.42;;;16.00;99.90;;;;;;5018876;28;20217;-72
2022/05/22 15:34:24;;;;;;;3.13;2.30;;;15.90;99.90;;;;;;5015355;28;20381;-71
2022/05/22 15:37:17;;;;;;;4.93;2.42;;;15.80;99.90;;;;;;5016470;28;20230;-72
2022/05/22 15:40:10;;;;;;;4.80;2.50;;;15.80;99.90;;;;;;5012516;28;20237;-70
2022/05/22 15:43:08;;;;;;;4.53;2.28;;;15.90;99.90;;;;;;5011487;28;20689;-69
2022/05/22 15:46:19;;;;;;;4.07;2.40;;;16.00;99.90;;;;;;5014158;28;20229;-72
2022/05/22 15:52:22;;;;;;;7.03;2.63;;;16.00;99.90;;;;;;5016820;28;20307;-72
2022/05/22 15:55:13;;;;;;;5.65;2.25;;;16.00;99.90;;;;;;5008052;28;20226;-71
2022/05/22 15:58:03;;;;;;;3.17;2.33;;;15.90;99.90;;;;;;5018918;28;20214;-71
2022/05/22 16:00:56;;;;;;;6.28;2.35;;;15.80;99.90;;;;;;5017879;28;20736;-71
2022/05/22 16:03:46;;;;;;;6.10;2.50;;;15.80;99.90;;;;;;5014915;28;20497;-73
2022/05/22 16:06:36;;;;;;;5.15;2.47;;;15.80;99.90;;;;;;5020082;28;20233;-71
2022/05/22 16:09:25;;;;;;;4.32;2.60;;;15.50;99.90;;;;;;5014405;28;20605;-73
2022/05/22 16:12:14;;;;;;;4.53;2.45;;;15.60;99.90;;;;;;5014616;28;20244;-70
2022/05/22 16:15:06;;;;;;;7.22;2.65;;;15.30;99.90;;;;;;5018100;28;20267;-72
2022/05/22 16:18:02;;;;;;;3.40;2.20;;;15.10;99.90;;;;;;5017344;28;20232;-72
2022/05/22 16:20:50;;;;;;;6.57;2.47;;;14.90;99.90;;;;;;5018493;28;20482;-71
2022/05/22 16:23:39;;;;;;;3.33;2.13;;;14.90;99.90;;;;;;5018519;28;20224;-71
2022/05/22 16:26:28;;;;;;;4.32;2.42;;;15.00;99.90;;;;;;5018923;28;20225;-70
2022/05/22 16:29:16;;;;;;;3.72;2.40;;;15.30;99.90;;;;;;5016696;28;20225;-71
2022/05/22 16:32:11;;;;;;;4.70;2.40;;;15.40;99.90;;;;;;5011062;28;20415;-72
2022/05/22 16:35:02;;;;;;;4.07;2.50;;;14.80;99.90;;;;;;5016314;28;20229;-70
2022/05/22 16:37:50;;;;;;;2.63;2.22;;;14.90;99.90;;;;;;5028674;28;20282;-72
2022/05/22 16:40:41;;;;;;;3.03;2.17;;;14.60;99.90;;;;;;5016760;28;20254;-70
2022/05/22 16:43:49;;;;;;;5.18;2.47;;;14.60;99.90;;;;;;5007698;28;20263;-70
2022/05/22 16:46:49;;;;;;;3.15;2.05;;;14.50;99.90;;;;;;5018662;28;20229;-72
2022/05/22 16:53:04;;;;;;;3.97;2.40;;;14.90;99.90;;;;;;5008219;28;20317;-72
2022/05/22 16:55:56;;;;;;;4.20;2.70;;;14.60;99.90;;;;;;4988280;28;20218;-70
2022/05/22 16:58:50;;;;;;;4.07;2.15;;;14.50;99.90;;;;;;5012598;28;20209;-71
2022/05/22 17:01:42;;;;;;;3.92;2.30;;;14.40;99.90;;;;;;5014264;28;20226;-70
2022/05/22 17:04:31;;;;;;;4.63;2.22;;;14.30;99.90;;;;;;5015194;28;20782;-71
2022/05/22 17:07:26;;;;;;;2.75;2.00;;;14.40;99.90;;;;;;5020115;28;20217;-72
2022/05/22 17:10:17;;;;;;;2.55;2.00;;;14.30;99.90;;;;;;5018252;28;20237;-71
2022/05/22 17:13:06;;;;;;;4.03;2.20;;;14.10;99.90;;;;;;5012016;28;20347;-71
2022/05/22 17:15:56;;;;;;;5.25;2.53;;;14.20;99.90;;;;;;5014039;28;20604;-77
2022/05/22 17:18:45;;;;;;;2.80;2.03;;;14.30;99.90;;;;;;5003958;28;20234;-75
2022/05/22 17:21:35;;;;;;;4.55;2.20;;;14.40;99.90;;;;;;4997104;28;20230;-74
2022/05/22 17:24:28;;;;;;;6.00;2.28;;;14.40;99.90;;;;;;5018266;28;20760;-76
2022/05/22 17:27:23;;;;;;;2.67;2.05;;;14.20;99.90;;;;;;5019840;28;20608;-76
2022/05/22 17:30:15;;;;;;;4.55;2.10;;;14.20;99.90;;;;;;5022027;28;20599;-76
2022/05/22 17:33:05;;;;;;;4.15;2.20;;;14.00;99.90;;;;;;5018951;28;20762;-76
2022/05/22 17:35:54;;;;;;;4.65;2.25;;;13.80;99.90;;;;;;5021335;28;20283;-76
2022/05/22 17:38:43;;;;;;;4.10;2.35;;;14.00;99.90;;;;;;5017825;28;20225;-76
2022/05/22 17:41:34;;;;;;;5.07;2.20;;;14.10;99.90;;;;;;5031260;28;20225;-74
2022/05/22 17:44:22;;;;;;;4.95;2.55;;;14.20;99.90;;;;;;5017155;28;20273;-76
2022/05/22 17:47:13;;;;;;;3.72;2.60;;;14.10;99.90;;;;;;5015708;28;20226;-73
2022/05/22 17:50:02;;;;;;;4.47;2.65;;;14.00;99.90;;;;;;5013605;28;20279;-74
2022/05/22 17:52:54;;;;;;;6.47;2.90;;;14.10;99.90;;;;;;5029364;28;20281;-77
2022/05/22 17:55:44;;;;;;;5.55;2.83;;;14.20;99.90;;;;;;5016666;28;20773;-76
2022/05/22 17:58:34;;;;;;;6.55;2.90;;;14.10;99.90;;;;;;5018404;28;20253;-75
2022/05/22 18:01:26;;;;;;;5.00;2.70;;;14.00;99.90;;;;;;5020458;28;20228;-74
2022/05/22 18:04:15;;;;;;;5.82;2.90;;;14.00;99.90;;;;;;5020385;28;20244;-74
2022/05/22 18:07:05;;;;;;;5.68;2.90;;;14.00;99.90;;;;;;5018310;28;20742;-75
2022/05/22 18:09:57;;;;;;;4.60;3.00;;;14.00;99.90;;;;;;5028796;28;20233;-72
2022/05/22 18:16:02;;;;;;;4.70;3.10;;;14.10;99.90;;;;;;5015574;28;20290;-72
2022/05/22 18:18:51;;;;;;;6.05;2.58;;;14.20;99.90;;;;;;5026104;28;20658;-71
2022/05/22 18:21:41;;;;;;;5.05;2.65;;;14.20;99.90;;;;;;5015170;28;20643;-71
2022/05/22 18:27:39;;;;;;;5.25;2.60;;;14.00;99.90;;;;;;5011055;28;20214;-71
2022/05/22 18:30:28;;;;;;;4.35;2.60;;;14.00;99.90;;;;;;5010296;28;20727;-73
2022/05/22 18:33:19;;;;;;;4.50;2.80;;;13.80;99.90;;;;;;5017703;28;20226;-72
2022/05/22 18:36:08;;;;;;;3.72;2.67;;;13.90;99.90;;;;;;5022170;28;20864;-71
2022/05/22 18:38:57;;;;;;;5.85;3.08;;;14.00;99.90;;;;;;5013982;28;20222;-73
2022/05/22 18:41:49;;;;;;;7.03;3.05;;;13.90;99.90;;;;;;5014417;28;20234;-73
2022/05/22 18:44:38;;;;;;;6.38;2.67;;;13.90;99.90;;;;;;5015897;28;20217;-72
2022/05/22 18:47:26;;;;;;;7.97;2.80;;;13.80;99.90;;;;;;5010707;28;20225;-73
2022/05/22 18:50:16;;;;;;;5.97;3.20;;;13.80;99.90;;;;;;5014657;28;20209;-72
2022/05/22 18:53:06;;;;;;;4.15;2.88;;;13.80;99.90;;;;;;5007341;28;20273;-73
2022/05/22 18:55:55;;;;;;;4.03;2.47;;;13.80;99.90;;;;;;5015296;28;20221;-73
2022/05/22 18:58:44;;;;;;;4.00;2.40;;;13.70;99.90;;;;;;5012104;28;20222;-73
2022/05/22 19:01:36;;;;;;;4.40;2.53;;;13.50;99.90;;;;;;5013726;28;20302;-72
2022/05/22 19:04:28;;;;;;;5.70;2.97;;;13.60;99.90;;;;;;5013654;28;20233;-71
2022/05/22 19:07:21;;;;;;;12.65;3.58;;;13.70;99.90;;;;;;5013765;28;20231;-71
2022/05/22 19:10:15;;;;;;;4.65;3.20;;;13.70;99.90;;;;;;5018801;28;20209;-72
2022/05/22 19:13:04;;;;;;;4.90;3.20;;;13.60;99.90;;;;;;5015527;28;20217;-71
2022/05/22 19:15:53;;;;;;;4.43;3.17;;;13.70;99.90;;;;;;5015373;28;20278;-72
2022/05/22 19:18:42;;;;;;;9.98;5.40;;;13.70;99.90;;;;;;5014582;28;20239;-71
2022/05/22 19:21:31;;;;;;;8.32;3.78;;;13.70;99.90;;;;;;5015451;28;20225;-72
2022/05/22 19:24:22;;;;;;;7.07;3.75;;;13.60;99.90;;;;;;5015472;28;20222;-71
2022/05/22 19:27:10;;;;;;;7.97;3.20;;;13.60;99.90;;;;;;5012458;28;20222;-71
2022/05/22 19:30:07;;;;;;;8.07;3.70;;;13.40;99.90;;;;;;5013581;28;20213;-71